createdAt,value
2018-08-08T00:01:08.800Z,2.87
2018-08-08T00:03:41.694Z,3.03
2018-08-08T00:06:16.390Z,2.83
2018-08-08T00:08:49.988Z,3.80
2018-08-08T00:11:24.222Z,3.20
2018-08-08T00:13:58.364Z,3.70
2018-08-08T00:16:31.844Z,4.10
2018-08-08T00:19:04.723Z,2.87
2018-08-08T00:21:38.218Z,2.77
2018-08-08T00:24:11.051Z,3.27
2018-08-08T00:26:44.133Z,3.43
2018-08-08T00:29:17.274Z,2.20
2018-08-08T00:31:50.664Z,2.87
2018-08-08T00:34:25.676Z,2.50
2018-08-08T00:37:00.789Z,1.77
2018-08-08T00:39:35.738Z,1.60
2018-08-08T00:42:13.162Z,1.73
2018-08-08T00:44:46.374Z,1.80
2018-08-08T00:47:20.626Z,2.03
2018-08-08T00:49:53.616Z,2.60
2018-08-08T00:52:28.165Z,1.47
2018-08-08T00:55:01.132Z,1.30
2018-08-08T00:57:35.242Z,1.33
2018-08-08T01:00:09.669Z,1.40
2018-08-08T01:02:44.396Z,2.63
2018-08-08T01:05:18.439Z,2.60
2018-08-08T01:07:52.876Z,1.37
2018-08-08T01:10:28.395Z,2.40
2018-08-08T01:13:02.588Z,3.00
2018-08-08T01:15:36.367Z,2.53
2018-08-08T01:18:09.928Z,2.23
2018-08-08T01:20:43.204Z,2.10
2018-08-08T01:23:16.716Z,1.70
2018-08-08T01:25:49.588Z,2.10
2018-08-08T01:28:23.218Z,2.43
2018-08-08T01:30:58.031Z,2.57
2018-08-08T01:33:32.496Z,2.70
2018-08-08T01:36:06.308Z,2.47
2018-08-08T01:38:39.563Z,3.37
2018-08-08T01:41:15.051Z,3.10
2018-08-08T01:43:51.238Z,1.57
2018-08-08T01:46:25.659Z,2.27
2018-08-08T01:48:59.954Z,4.63
2018-08-08T01:51:34.911Z,1.73
2018-08-08T01:54:09.626Z,2.30
2018-08-08T01:56:42.520Z,2.07
2018-08-08T01:59:16.069Z,3.27
2018-08-08T02:01:50.146Z,2.77
2018-08-08T02:04:26.611Z,2.83
2018-08-08T02:07:02.371Z,2.93
2018-08-08T02:09:37.191Z,3.10
2018-08-08T02:12:12.137Z,2.87
2018-08-08T02:14:47.149Z,1.77
2018-08-08T02:17:20.051Z,4.73
2018-08-08T02:19:52.978Z,4.33
2018-08-08T02:26:35.051Z,4.27
2018-08-08T02:29:10.136Z,6.50
2018-08-08T02:31:44.544Z,5.23
2018-08-08T02:34:18.229Z,4.70
2018-08-08T02:36:51.640Z,2.67
2018-08-08T02:39:25.780Z,2.77
2018-08-08T02:41:59.686Z,3.70
2018-08-08T02:44:33.449Z,2.83
2018-08-08T02:47:07.196Z,2.97
2018-08-08T02:49:41.545Z,3.90
2018-08-08T02:52:15.418Z,4.10
2018-08-08T02:54:49.368Z,2.60
2018-08-08T02:57:23.197Z,3.33
2018-08-08T02:59:56.458Z,4.73
2018-08-08T03:02:31.033Z,2.87
2018-08-08T03:05:10.070Z,2.63
2018-08-08T03:07:45.399Z,5.90
2018-08-08T03:10:20.097Z,3.63
2018-08-08T03:12:53.308Z,3.40
2018-08-08T03:15:29.271Z,2.80
2018-08-08T03:18:07.002Z,2.73
2018-08-08T03:20:51.222Z,2.73
2018-08-08T03:23:25.428Z,2.60
2018-08-08T03:25:58.899Z,2.77
2018-08-08T03:28:32.493Z,2.90
2018-08-08T03:31:06.490Z,2.60
2018-08-08T03:33:41.658Z,3.10
2018-08-08T03:36:17.211Z,2.30
2018-08-08T03:38:51.528Z,5.30
2018-08-08T03:41:25.437Z,4.30
2018-08-08T03:44:00.154Z,3.97
2018-08-08T03:46:33.488Z,5.23
2018-08-08T03:49:07.724Z,4.23
2018-08-08T03:51:44.179Z,4.80
2018-08-08T03:54:18.216Z,2.87
2018-08-08T03:56:59.113Z,3.40
2018-08-08T03:59:34.760Z,3.40
2018-08-08T04:02:16.384Z,3.90
2018-08-08T04:04:50.421Z,4.13
2018-08-08T04:07:24.354Z,3.20
2018-08-08T04:09:57.844Z,4.67
2018-08-08T04:12:32.458Z,3.20
2018-08-08T04:15:05.591Z,3.90
2018-08-08T04:17:39.854Z,3.27
2018-08-08T04:20:14.589Z,5.07
2018-08-08T04:22:48.923Z,6.73
2018-08-08T04:25:22.170Z,5.17
2018-08-08T04:27:55.352Z,6.40
2018-08-08T04:30:29.069Z,3.40
2018-08-08T04:33:03.755Z,6.70
2018-08-08T04:35:43.187Z,4.67
2018-08-08T04:38:18.116Z,3.77
2018-08-08T04:40:53.836Z,5.37
2018-08-08T04:43:29.006Z,3.93
2018-08-08T04:46:04.453Z,4.37
2018-08-08T04:48:40.244Z,3.30
2018-08-08T04:51:13.967Z,5.67
2018-08-08T04:53:50.217Z,5.93
2018-08-08T04:56:23.675Z,3.27
2018-08-08T04:58:58.441Z,4.70
2018-08-08T05:01:32.402Z,4.80
2018-08-08T05:04:08.114Z,4.57
2018-08-08T05:06:46.590Z,4.73
2018-08-08T05:09:27.846Z,3.30
2018-08-08T05:12:12.076Z,6.30
2018-08-08T05:14:58.832Z,3.23
2018-08-08T05:17:38.298Z,6.83
2018-08-08T05:20:12.933Z,3.90
2018-08-08T05:22:53.797Z,7.33
2018-08-08T05:25:30.891Z,4.20
2018-08-08T05:28:08.500Z,5.83
2018-08-08T05:30:42.733Z,4.17
2018-08-08T05:33:20.667Z,4.70
2018-08-08T05:35:55.735Z,4.87
2018-08-08T05:41:11.834Z,4.20
2018-08-08T05:43:45.322Z,4.77
2018-08-08T05:49:04.991Z,3.90
2018-08-08T05:51:41.742Z,5.53
2018-08-08T05:59:51.920Z,4.87
2018-08-08T06:02:27.313Z,3.20
2018-08-08T06:05:00.569Z,3.40
2018-08-08T06:07:33.918Z,3.20
2018-08-08T06:10:07.767Z,4.33
2018-08-08T06:12:42.142Z,3.70
2018-08-08T06:15:17.019Z,3.83
2018-08-08T06:17:51.760Z,3.33
2018-08-08T06:20:26.887Z,2.67
2018-08-08T06:23:00.738Z,3.93
2018-08-08T06:25:34.441Z,2.60
2018-08-08T06:28:08.141Z,2.70
2018-08-08T06:30:41.754Z,6.63
2018-08-08T06:33:16.013Z,4.67
2018-08-08T06:35:50.497Z,3.70
2018-08-08T06:38:27.530Z,4.33
2018-08-08T06:41:01.715Z,3.40
2018-08-08T06:43:35.250Z,2.97
2018-08-08T06:46:09.080Z,4.37
2018-08-08T06:48:49.003Z,3.30
2018-08-08T06:51:25.853Z,3.80
2018-08-08T06:54:00.793Z,4.60
2018-08-08T06:56:40.125Z,4.33
2018-08-08T06:59:16.832Z,3.27
2018-08-08T07:01:50.170Z,5.03
2018-08-08T07:04:25.195Z,3.17
2018-08-08T07:07:04.814Z,3.90
2018-08-08T07:09:40.912Z,3.67
2018-08-08T07:12:37.554Z,3.70
2018-08-08T07:15:16.666Z,4.43
2018-08-08T07:17:50.783Z,4.33
2018-08-08T07:20:29.284Z,4.37
2018-08-08T14:36:05.620Z,7.77
2018-08-08T14:38:40.416Z,7.93
2018-08-08T14:41:32.326Z,12.37
2018-08-08T14:50:44.891Z,8.17
2018-08-08T14:53:18.294Z,6.93
2018-08-08T14:55:52.581Z,6.73
2018-08-08T14:58:27.657Z,9.60
2018-08-08T15:01:03.753Z,6.70
2018-08-08T15:03:42.030Z,7.20
2018-08-08T15:08:58.414Z,6.63
2018-08-08T15:11:34.380Z,7.83
2018-08-08T15:14:08.327Z,5.07
2018-08-08T15:16:42.417Z,4.83
2018-08-08T15:19:17.464Z,7.97
2018-08-08T15:21:52.283Z,7.30
2018-08-08T15:24:28.105Z,7.07
2018-08-08T15:27:03.027Z,4.30
2018-08-08T15:29:36.728Z,7.37
2018-08-08T15:32:10.250Z,5.63
2018-08-08T15:34:47.466Z,5.60
2018-08-08T15:37:24.343Z,6.30
2018-08-08T15:39:58.667Z,4.30
2018-08-08T15:42:32.131Z,4.73
2018-08-08T15:45:07.137Z,8.50
2018-08-08T15:47:41.190Z,6.80
2018-08-08T15:50:15.980Z,7.70
2018-08-08T15:52:49.819Z,5.23
2018-08-08T15:55:23.972Z,6.37
2018-08-08T15:57:57.634Z,5.33
2018-08-08T16:00:30.999Z,5.87
2018-08-08T16:03:05.107Z,5.10
2018-08-08T16:05:38.833Z,6.57
2018-08-08T16:08:14.950Z,7.53
2018-08-08T16:10:53.853Z,6.37
2018-08-08T16:13:28.204Z,4.60
2018-08-08T16:16:06.961Z,6.40
2018-08-08T16:18:41.900Z,4.73
2018-08-08T16:21:16.478Z,6.07
2018-08-08T16:23:52.851Z,6.20
2018-08-08T16:26:26.451Z,5.97
2018-08-08T16:29:01.287Z,5.83
2018-08-08T16:31:34.924Z,5.30
2018-08-08T16:34:08.498Z,8.40
2018-08-08T16:36:42.874Z,4.80
2018-08-08T16:39:16.872Z,7.40
2018-08-08T16:41:53.613Z,9.40
2018-08-08T16:44:27.041Z,4.70
2018-08-08T16:47:02.166Z,6.33
2018-08-08T16:49:36.416Z,5.67
2018-08-08T16:52:09.470Z,4.73
2018-08-08T16:54:43.564Z,7.50
2018-08-08T16:57:17.519Z,5.20
2018-08-08T16:59:53.955Z,10.17
2018-08-08T17:02:29.339Z,4.20
2018-08-08T17:05:04.869Z,6.17
2018-08-08T17:07:39.963Z,7.90
2018-08-08T17:10:14.543Z,9.63
2018-08-08T17:12:47.662Z,7.40
2018-08-08T17:15:22.988Z,8.73
2018-08-08T17:17:59.186Z,5.93
2018-08-08T17:20:36.512Z,4.13
2018-08-08T17:23:17.044Z,5.77
2018-08-08T17:25:52.271Z,6.23
2018-08-08T17:28:25.744Z,4.07
2018-08-08T17:31:00.283Z,7.37
2018-08-08T17:33:36.427Z,10.20
2018-08-08T17:36:13.521Z,8.13
2018-08-08T17:38:47.834Z,6.17
2018-08-08T17:41:23.919Z,4.10
2018-08-08T17:44:00.701Z,6.53
2018-08-08T17:46:44.073Z,6.20
2018-08-08T17:49:21.943Z,5.53
2018-08-08T17:51:57.895Z,4.60
2018-08-08T17:54:33.986Z,6.43
2018-08-08T18:01:39.973Z,5.47
2018-08-08T18:06:58.371Z,7.63
2018-08-08T18:09:35.227Z,9.67
2018-08-08T18:12:09.578Z,10.93
2018-08-08T18:14:43.172Z,12.20
2018-08-08T18:17:17.865Z,7.93
2018-08-08T18:19:54.881Z,6.93
2018-08-08T18:22:29.605Z,8.93
2018-08-08T18:25:02.881Z,7.27
2018-08-08T18:27:36.477Z,9.53
2018-08-08T18:30:12.497Z,7.30
2018-08-08T18:32:49.543Z,5.63
2018-08-08T18:35:26.538Z,7.40
2018-08-08T18:38:03.658Z,9.37
2018-08-08T18:40:37.994Z,5.80
2018-08-08T18:43:13.603Z,6.07
2018-08-08T18:45:48.081Z,9.70
2018-08-08T18:48:24.088Z,7.77
2018-08-08T18:50:59.558Z,7.03
2018-08-08T18:53:36.263Z,5.93
2018-08-08T18:56:10.201Z,9.50
